Poway, California
Current Conditions -  °F | °C
As of 8:55 AM on Sunday 23 Nov 2014 (Local Time) from KNKX Reporting Station
Broken Clouds Broken Clouds  
Wind Chill: 64°   Ceiling: 20000
Heat Index: 64°   Visibility: 10mi
Dew Point: 52°   Wind: 0mph
Humidity: 65%   Direction: NA
Pressure: 30.12"   Gusts: NA
Location:  32.95°N, 117.04°W
Report Text: KNKX 231655Z 00000KT 10SM BKN200 18/11 A3012 RMK AO2 SLP194 T01780111 $
Loading
Personal Weather Stations






























Interactive Weather Map New forecast layout! Learn more

10-Day Weather Forecast

Advertisements
Track Severe Weather on mobile